gardenplace.jp alexa rank chart, gardenplace.jp alexa rank daily changes

gardenplace.jp alexa rank chart, gardenplace.jp alexa rank daily changes

gardenplace.jp
Actual rank:
220 911

RANK HISTORY

Date Rank Diff
2017/06/25 220 911 -5 504
2017/06/24 226 415 +8 257
2017/06/23 218 158 +6 278
2017/06/22 211 880 -3 657
2017/06/21 215 537 -4 455
2017/06/20 219 992 -7 090
2017/06/19 227 082 +4 457
2017/06/18 222 625 -1 634
2017/06/17 224 259 +15 642
2017/06/16 208 617 -3 806
2017/06/15 212 423 -3 963
2017/06/14 216 386 +5 199
2017/06/13 211 187 +3 611
2017/06/12 207 576 -6 808
2017/06/11 214 384 -1 525
2017/06/10 215 909 -289
2017/06/09 216 198 -9 476
2017/06/08 225 674 +3 625
2017/06/07 222 049 -4 886
2017/06/06 226 935 -8 974
2017/06/05 235 909 -27 854
2017/06/04 263 763 -198
2017/06/03 263 961 +310
2017/06/02 263 651 +6 525
2017/06/01 257 126 -19 040
2017/05/31 276 166 -7 810
2017/05/30 283 976 +9 991
2017/05/29 273 985 +13 991
2017/05/28 259 994 -17 305
2017/05/27 277 299 -20 622
2017/05/26 297 921 +21 210
2017/05/25 276 711 +3 093
2017/05/24 273 618 -27 177
2017/05/23 300 795 -13 311
2017/05/22 314 106 +18 979
2017/05/21 295 127 -438
2017/05/20 295 565 -259
2017/05/19 295 824 -9 850
2017/05/18 305 674 -9 221
2017/05/17 314 895 -62 045
2017/05/16 376 940 +15 873
2017/05/15 361 067 +42 989
2017/05/14 318 078 -12 065
2017/05/13 330 143 +52
2017/05/12 330 091 +16 845
2017/05/11 313 246 -9 675
2017/05/10 322 921 +16 682
2017/05/09 306 239 +39 026
2017/05/08 267 213 -5 312
2017/05/07 272 525 -518
2017/05/06 273 043 +19 839
2017/05/05 253 204 +21 808
2017/05/04 231 396 +4 024
2017/05/03 227 372 -5 788
2017/05/02 233 160 +3 347
2017/05/01 229 813 +11 523
2017/04/30 218 290 -6 524
2017/04/29 224 814 -10 316
2017/04/28 235 130 +2 197
2017/04/27 232 933 +669
2017/04/26 232 264

WIDGET FOR YOUR SITE

DOMAINS WITH THE NEAREST RANK

Domain Rank
safeoptout.info 220 906
9tut.net 220 907
sanfo.tmall.com 220 908
45575.com 220 909
wevox.io 220 910
gardenplace.jp 220 911
blackdesert-info.ru 220 912
bofrost.it 220 913
sein.de 220 914
tuo8.space 220 915
funhtml5games.com 220 916

DOMAINS WITH THE NEAREST RANK BY TLD .jp

Domain Rank
aqua-park.jp 220 468
bullettrain.jp 220 581
ranrantour.jp 220 764
cppdrive.jp 220 798
ishampoo.jp 220 831
gardenplace.jp 220 911
hr-s.jp 220 947
kenrent.jp 221 023
mycode.jp 221 126
hra-service.jp 221 258
jra-odds.jp 221 336